createdAt,value
2017-10-09T00:00:25.804Z,0
2017-10-09T00:05:31.195Z,0
2017-10-09T00:10:36.916Z,0
2017-10-09T00:15:41.974Z,0
2017-10-09T00:20:47.029Z,0
2017-10-09T00:25:52.465Z,0
2017-10-09T00:30:57.521Z,0
2017-10-09T00:36:02.573Z,0
2017-10-09T00:41:08.298Z,0
2017-10-09T00:46:13.022Z,0
2017-10-09T00:51:18.744Z,0
2017-10-09T00:56:24.134Z,0
2017-10-09T01:01:29.519Z,0
2017-10-09T01:06:34.906Z,0
2017-10-09T01:11:40.298Z,0
2017-10-09T01:16:45.014Z,0
2017-10-09T01:21:50.736Z,0
2017-10-09T01:26:56.135Z,0
2017-10-09T01:32:01.525Z,0
2017-10-09T01:37:06.916Z,0
2017-10-09T01:42:12.312Z,0
2017-10-09T01:47:17.361Z,0
2017-10-09T01:52:22.081Z,0
2017-10-09T01:57:27.472Z,0
2017-10-09T02:02:31.855Z,0
2017-10-09T02:07:37.576Z,0
2017-10-09T02:12:43.302Z,0
2017-10-09T02:17:48.021Z,0
2017-10-09T02:22:53.081Z,0
2017-10-09T02:27:58.146Z,0
2017-10-09T02:33:03.202Z,0
2017-10-09T02:38:08.257Z,0
2017-10-09T02:43:12.982Z,0
2017-10-09T02:48:17.701Z,0
2017-10-09T02:53:22.755Z,0
2017-10-09T02:58:28.476Z,0
2017-10-09T03:03:34.208Z,0
2017-10-09T03:08:38.931Z,0
2017-10-09T03:13:43.981Z,0
2017-10-09T03:18:49.372Z,0
2017-10-09T03:23:54.433Z,0
2017-10-09T03:28:59.826Z,0
2017-10-09T03:34:04.885Z,0
2017-10-09T03:39:09.605Z,0
2017-10-09T03:44:14.328Z,0
2017-10-09T03:49:19.718Z,0
2017-10-09T03:54:24.778Z,0
2017-10-09T03:59:29.830Z,0
2017-10-09T04:04:35.220Z,0
2017-10-09T04:09:40.610Z,0
2017-10-09T04:14:45.674Z,0
2017-10-09T04:19:51.078Z,0
2017-10-09T04:24:55.462Z,0
2017-10-09T04:30:00.515Z,0
2017-10-09T04:35:06.245Z,0
2017-10-09T04:40:11.331Z,0
2017-10-09T04:45:16.720Z,0
2017-10-09T04:50:21.790Z,0
2017-10-09T04:55:26.846Z,0
2017-10-09T05:00:31.247Z,1
2017-10-09T05:05:35.971Z,1
2017-10-09T05:10:41.031Z,1
2017-10-09T05:15:46.083Z,1
2017-10-09T05:20:52.144Z,3
2017-10-09T05:25:56.528Z,5
2017-10-09T05:31:01.918Z,9
2017-10-09T05:36:07.662Z,19
2017-10-09T05:41:12.725Z,26
2017-10-09T05:46:17.782Z,39
2017-10-09T05:51:23.170Z,64
2017-10-09T05:56:27.222Z,58
2017-10-09T06:01:32.948Z,82
2017-10-09T06:06:38.347Z,106
2017-10-09T06:11:44.070Z,136
2017-10-09T06:16:49.864Z,198
2017-10-09T06:21:54.918Z,321
2017-10-09T06:27:00.648Z,378
2017-10-09T06:32:05.364Z,404
2017-10-09T06:37:10.755Z,525
2017-10-09T06:42:16.156Z,690
2017-10-09T06:47:20.544Z,271
2017-10-09T06:52:25.605Z,276
2017-10-09T06:57:29.989Z,352
2017-10-09T07:02:36.051Z,158
2017-10-09T07:07:40.773Z,183
2017-10-09T07:12:46.496Z,556
2017-10-09T07:17:51.554Z,876
2017-10-09T07:22:56.947Z,1217
2017-10-09T07:28:02.005Z,1538
2017-10-09T07:33:07.063Z,1682
2017-10-09T07:38:11.782Z,895
2017-10-09T07:43:16.835Z,879
2017-10-09T07:48:22.566Z,1135
2017-10-09T07:53:27.621Z,1064
2017-10-09T07:58:32.679Z,753
2017-10-09T08:03:37.070Z,967
2017-10-09T08:08:42.132Z,1713
2017-10-09T08:13:47.194Z,1530
2017-10-09T08:18:51.914Z,1099
2017-10-09T08:23:57.306Z,994
2017-10-09T08:29:02.412Z,345
2017-10-09T08:34:07.139Z,320
2017-10-09T08:39:11.534Z,220
2017-10-09T08:44:15.586Z,385
2017-10-09T08:49:20.309Z,371
2017-10-09T08:54:25.366Z,553
2017-10-09T08:59:31.097Z,798
2017-10-09T09:04:36.157Z,1507
2017-10-09T09:09:41.883Z,1345
2017-10-09T09:14:46.272Z,2727
2017-10-09T09:19:51.662Z,833
2017-10-09T09:24:56.721Z,904
2017-10-09T09:30:02.448Z,1297
2017-10-09T09:35:07.174Z,2479
2017-10-09T09:40:12.568Z,567
2017-10-09T09:45:17.960Z,949
2017-10-09T09:50:23.355Z,1040
2017-10-09T09:55:28.077Z,574
2017-10-09T10:00:33.140Z,1316
2017-10-09T10:05:37.199Z,2441
2017-10-09T10:10:41.594Z,2064
2017-10-09T10:15:46.652Z,1753
2017-10-09T10:20:51.532Z,2837
2017-10-09T10:25:56.593Z,1226
2017-10-09T10:31:01.658Z,2168
2017-10-09T10:36:07.389Z,941
2017-10-09T10:41:12.444Z,979
2017-10-09T10:46:18.088Z,2654
2017-10-09T10:51:23.478Z,2281
2017-10-09T10:56:28.202Z,1938
2017-10-09T11:01:33.930Z,1103
2017-10-09T11:06:38.991Z,1857
2017-10-09T11:11:44.722Z,2697
2017-10-09T11:16:50.453Z,2057
2017-10-09T11:21:55.850Z,1866
2017-10-09T11:27:01.247Z,1968
2017-10-09T11:32:05.973Z,1935
2017-10-09T11:37:11.037Z,1392
2017-10-09T11:42:16.098Z,1443
2017-10-09T11:47:21.157Z,873
2017-10-09T11:52:26.564Z,439
2017-10-09T11:57:31.290Z,791
2017-10-09T12:02:36.017Z,720
2017-10-09T12:07:41.410Z,618
2017-10-09T12:12:46.476Z,373
2017-10-09T12:17:51.535Z,464
2017-10-09T12:22:56.602Z,1269
2017-10-09T12:28:01.660Z,1038
2017-10-09T12:33:06.386Z,863
2017-10-09T12:38:11.450Z,1286
2017-10-09T12:43:16.509Z,576
2017-10-09T12:48:21.235Z,687
2017-10-09T12:53:25.966Z,542
2017-10-09T12:58:30.704Z,767
2017-10-09T13:03:36.106Z,677
2017-10-09T13:08:40.837Z,612
2017-10-09T13:13:46.269Z,692
2017-10-09T13:18:51.314Z,634
2017-10-09T13:23:57.051Z,703
2017-10-09T13:29:02.118Z,390
2017-10-09T13:34:07.516Z,515
2017-10-09T13:39:13.251Z,434
2017-10-09T13:44:17.984Z,633
2017-10-09T13:49:23.045Z,823
2017-10-09T13:54:28.442Z,738
2017-10-09T13:59:32.833Z,530
2017-10-09T14:04:37.893Z,349
2017-10-09T14:09:42.624Z,227
2017-10-09T14:14:48.026Z,163
2017-10-09T14:19:53.427Z,191
2017-10-09T14:24:59.492Z,230
2017-10-09T14:30:03.972Z,198
2017-10-09T14:40:14.543Z,134
2017-10-09T14:45:20.524Z,104
2017-10-09T14:50:25.294Z,97
2017-10-09T14:55:30.389Z,110
2017-10-09T15:00:36.437Z,111
2017-10-09T15:05:42.318Z,84
2017-10-09T15:10:47.095Z,64
2017-10-09T15:15:52.358Z,72
2017-10-09T15:20:57.895Z,110
2017-10-09T15:26:03.345Z,120
2017-10-09T15:31:09.234Z,143
2017-10-09T15:36:14.670Z,90
2017-10-09T15:41:20.120Z,70
2017-10-09T15:46:25.216Z,67
2017-10-09T15:51:30.648Z,48
2017-10-09T15:56:35.389Z,43
2017-10-09T16:01:41.507Z,41
2017-10-09T16:06:46.943Z,52
2017-10-09T16:11:52.377Z,54
2017-10-09T16:16:57.470Z,33
2017-10-09T16:22:02.556Z,22
2017-10-09T16:27:08.332Z,13
2017-10-09T16:32:13.075Z,10
2017-10-09T16:37:18.508Z,8
2017-10-09T16:42:23.611Z,5
2017-10-09T16:47:29.058Z,3
2017-10-09T16:52:34.123Z,2
2017-10-09T16:57:38.522Z,0
2017-10-09T17:02:44.636Z,0
2017-10-09T17:07:49.728Z,0
2017-10-09T17:12:54.472Z,0
2017-10-09T17:17:58.886Z,0
2017-10-09T17:23:03.624Z,0
2017-10-09T17:28:08.368Z,0
2017-10-09T17:33:14.142Z,0
2017-10-09T17:38:19.224Z,0
2017-10-09T17:43:24.311Z,0
2017-10-09T17:48:29.743Z,0
2017-10-09T17:53:34.830Z,0
2017-10-09T17:58:40.123Z,0
2017-10-09T18:03:45.207Z,0
2017-10-09T18:08:50.983Z,0
2017-10-09T18:13:56.415Z,0
2017-10-09T18:19:01.501Z,0
2017-10-09T18:24:06.584Z,0
2017-10-09T18:29:12.359Z,0
2017-10-09T18:34:18.141Z,0
2017-10-09T18:39:23.572Z,0
2017-10-09T18:44:27.979Z,0
2017-10-09T18:49:33.767Z,0
2017-10-09T18:54:38.509Z,0
2017-10-09T18:59:43.255Z,0
2017-10-09T19:04:48.012Z,0
2017-10-09T19:09:53.108Z,0
2017-10-09T19:14:58.882Z,0
2017-10-09T19:20:04.663Z,0
2017-10-09T19:25:10.098Z,0
2017-10-09T19:30:15.929Z,0
2017-10-09T19:35:21.373Z,0
2017-10-09T19:40:26.120Z,0
2017-10-09T19:45:31.556Z,0
2017-10-09T19:50:36.323Z,0
2017-10-09T19:55:41.421Z,0
2017-10-09T20:00:46.194Z,0
2017-10-09T20:05:50.952Z,0
2017-10-09T20:10:56.532Z,0
2017-10-09T20:16:01.278Z,0
2017-10-09T20:21:06.042Z,0
2017-10-09T20:26:11.486Z,0
2017-10-09T20:31:16.921Z,0
2017-10-09T20:36:22.350Z,0
2017-10-09T20:41:27.806Z,0
2017-10-09T20:46:32.554Z,0
2017-10-09T20:51:38.689Z,0
2017-10-09T20:56:44.113Z,0
2017-10-09T21:01:48.514Z,0
2017-10-09T21:06:54.294Z,0
2017-10-09T21:12:00.079Z,0
2017-10-09T21:17:06.067Z,0
2017-10-09T21:22:11.500Z,0
2017-10-09T21:27:17.274Z,0
2017-10-09T21:32:22.373Z,0
2017-10-09T21:37:26.441Z,0
2017-10-09T21:42:31.570Z,0
2017-10-09T21:47:36.319Z,0
2017-10-09T21:52:40.722Z,0
2017-10-09T21:57:46.579Z,0
2017-10-09T22:02:52.117Z,0
2017-10-09T22:07:57.204Z,0
2017-10-09T22:13:02.635Z,0
2017-10-09T22:18:08.425Z,0
2017-10-09T22:23:14.553Z,0
2017-10-09T22:28:19.987Z,0
2017-10-09T22:33:24.726Z,0
2017-10-09T22:38:29.830Z,0
2017-10-09T22:43:34.989Z,0
2017-10-09T22:48:40.075Z,0
2017-10-09T22:53:45.856Z,0
2017-10-09T22:58:51.298Z,0
2017-10-09T23:03:56.393Z,0
2017-10-09T23:09:01.469Z,0
2017-10-09T23:14:06.560Z,0
2017-10-09T23:19:11.657Z,0
2017-10-09T23:24:17.431Z,0
2017-10-09T23:29:21.826Z,0
2017-10-09T23:34:27.260Z,0
2017-10-09T23:39:32.008Z,0
2017-10-09T23:44:37.446Z,0
2017-10-09T23:49:42.869Z,0
2017-10-09T23:54:48.315Z,0
2017-10-09T23:59:53.102Z,0
